Terminal Aerodrome Forecast
Issued by NWS

Home | Current Version | Previous Version | Text Only | Print | Product List | Glossary On
Versions: 1 2 3 4 5 6 7 8 9 10 11 12 13 14 15 16 17 18 19
000
FTUS43 KILX 012329
TAFBMI
TAF
KBMI 012329Z 0200/0224 15012KT P6SM VCTS SCT040CB
      TEMPO 0200/0201 4SM TSRA BR BKN040CB
     FM020100 21007KT P6SM SCT080
      TEMPO 0208/0212 4SM BR
     FM021700 21010KT P6SM SCT080=

USA.gov is the U.S. government's official web portal to all federal, state and local government web resources and services.